createdAt,value
2019-04-05T00:00:46.135Z,18.20
2019-04-05T00:03:34.247Z,18.20
2019-04-05T00:06:22.748Z,18.20
2019-04-05T00:09:12.180Z,18.10
2019-04-05T00:12:01.135Z,18.10
2019-04-05T00:14:49.482Z,18.10
2019-04-05T00:17:37.797Z,18.00
2019-04-05T00:20:26.064Z,18.00
2019-04-05T00:23:14.610Z,18.00
2019-04-05T00:26:02.941Z,17.90
2019-04-05T00:28:51.841Z,17.90
2019-04-05T00:31:40.589Z,17.90
2019-04-05T00:34:29.897Z,17.90
2019-04-05T00:37:18.005Z,17.80
2019-04-05T00:40:09.467Z,17.80
2019-04-05T00:42:58.152Z,17.80
2019-04-05T00:45:47.272Z,17.80
2019-04-05T00:48:35.286Z,17.80
2019-04-05T00:51:23.578Z,17.70
2019-04-05T00:54:11.912Z,17.80
2019-04-05T00:57:00.681Z,17.70
2019-04-05T00:59:49.015Z,17.70
2019-04-05T01:02:37.738Z,17.70
2019-04-05T01:05:26.524Z,17.60
2019-04-05T01:08:14.951Z,17.60
2019-04-05T01:11:04.195Z,17.60
2019-04-05T01:13:36.517Z,17.60
2019-04-05T01:16:25.201Z,17.60
2019-04-05T01:19:15.755Z,17.50
2019-04-05T01:22:05.948Z,17.50
2019-04-05T01:24:54.320Z,17.50
2019-04-05T01:27:43.499Z,17.50
2019-04-05T01:30:32.623Z,17.50
2019-04-05T01:33:21.530Z,17.40
2019-04-05T01:36:10.233Z,17.40
2019-04-05T01:38:58.727Z,17.40
2019-04-05T01:41:48.938Z,17.30
2019-04-05T01:44:39.520Z,17.30
2019-04-05T01:47:28.353Z,17.30
2019-04-05T01:50:17.212Z,17.30
2019-04-05T01:53:05.999Z,17.30
2019-04-05T01:55:54.413Z,17.20
2019-04-05T01:58:42.921Z,17.20
2019-04-05T02:01:31.859Z,17.20
2019-04-05T02:04:20.287Z,17.20
2019-04-05T02:07:08.873Z,17.20
2019-04-05T02:09:58.167Z,17.10
2019-04-05T02:12:46.900Z,17.10
2019-04-05T02:15:37.297Z,17.10
2019-04-05T02:18:25.806Z,17.10
2019-04-05T02:21:13.997Z,17.10
2019-04-05T02:24:04.081Z,17.10
2019-04-05T02:26:52.495Z,17.10
2019-04-05T02:29:41.447Z,17.10
2019-04-05T02:32:29.829Z,17.10
2019-04-05T02:35:18.653Z,17.10
2019-04-05T02:38:07.461Z,17.20
2019-04-05T02:40:59.151Z,17.20
2019-04-05T02:43:49.845Z,17.20
2019-04-05T02:46:40.273Z,17.20
2019-04-05T02:49:31.458Z,17.20
2019-04-05T02:52:22.129Z,17.20
2019-04-05T02:55:12.150Z,17.20
2019-04-05T02:58:03.385Z,17.20
2019-04-05T03:00:53.014Z,17.20
2019-04-05T03:03:43.380Z,17.20
2019-04-05T03:06:32.998Z,17.20
2019-04-05T03:09:22.557Z,17.20
2019-04-05T03:12:11.211Z,17.20
2019-04-05T03:14:43.726Z,17.20
2019-04-05T03:17:33.331Z,17.20
2019-04-05T03:20:21.840Z,17.20
2019-04-05T03:23:11.564Z,17.30
2019-04-05T03:26:03.267Z,17.30
2019-04-05T03:28:54.604Z,17.40
2019-04-05T03:31:44.409Z,17.40
2019-04-05T03:34:34.005Z,17.50
2019-04-05T03:40:10.613Z,17.60
2019-04-05T03:42:59.641Z,17.60
2019-04-05T03:45:48.502Z,17.60
2019-04-05T03:48:37.642Z,17.60
2019-04-05T03:51:27.333Z,17.70
2019-04-05T03:54:15.988Z,17.70
2019-04-05T03:57:05.258Z,17.70
2019-04-05T03:59:53.497Z,17.70
2019-04-05T04:02:42.231Z,17.70
2019-04-05T04:05:30.476Z,17.70
2019-04-05T04:08:18.933Z,17.70
2019-04-05T04:11:09.402Z,17.70
2019-04-05T04:13:58.192Z,17.70
2019-04-05T04:16:46.863Z,17.70
2019-04-05T04:19:35.571Z,17.70
2019-04-05T04:22:29.423Z,17.70
2019-04-05T04:25:17.546Z,17.60
2019-04-05T04:28:07.632Z,17.70
2019-04-05T04:30:56.077Z,17.60
2019-04-05T04:33:45.289Z,17.60
2019-04-05T04:36:34.730Z,17.60
2019-04-05T04:39:23.565Z,17.50
2019-04-05T04:42:12.393Z,17.50
2019-04-05T04:45:11.408Z,17.60
2019-04-05T04:47:51.564Z,17.50
2019-04-05T04:50:41.894Z,17.50
2019-04-05T04:53:30.356Z,17.50
2019-04-05T04:56:20.230Z,17.50
2019-04-05T04:59:08.372Z,17.50
2019-04-05T05:01:56.986Z,17.50
2019-04-05T05:04:46.389Z,17.40
2019-04-05T05:07:35.206Z,17.40
2019-04-05T05:10:23.700Z,17.40
2019-04-05T05:13:12.748Z,17.40
2019-04-05T05:15:43.762Z,17.40
2019-04-05T05:18:33.034Z,17.40
2019-04-05T05:21:21.548Z,17.40
2019-04-05T05:24:10.502Z,17.40
2019-04-05T05:26:59.230Z,17.40
2019-04-05T05:29:48.896Z,17.40
2019-04-05T05:32:38.416Z,17.40
2019-04-05T05:35:28.195Z,17.40
2019-04-05T05:38:16.717Z,17.40
2019-04-05T05:41:05.394Z,17.50
2019-04-05T05:43:53.805Z,17.50
2019-04-05T05:46:42.367Z,17.60
2019-04-05T05:49:30.933Z,17.60
2019-04-05T05:52:20.957Z,17.60
2019-04-05T05:55:10.395Z,17.70
2019-04-05T05:57:58.843Z,17.60
2019-04-05T06:00:47.878Z,17.70
2019-04-05T06:03:36.168Z,17.70
2019-04-05T06:06:24.773Z,17.70
2019-04-05T06:09:13.435Z,17.70
2019-04-05T06:12:01.590Z,17.80
2019-04-05T06:14:50.737Z,17.80
2019-04-05T06:17:39.163Z,17.80
2019-04-05T06:20:27.748Z,17.90
2019-04-05T06:23:15.818Z,17.90
2019-04-05T06:26:04.328Z,18.00
2019-04-05T06:28:52.792Z,18.00
2019-04-05T06:31:41.187Z,18.00
2019-04-05T06:34:29.551Z,18.10
2019-04-05T06:37:17.741Z,18.10
2019-04-05T06:40:08.683Z,18.20
2019-04-05T06:42:56.821Z,18.30
2019-04-05T06:45:45.093Z,18.30
2019-04-05T06:48:33.758Z,18.30
2019-04-05T06:51:22.155Z,18.40
2019-04-05T06:54:10.963Z,18.40
2019-04-05T06:56:59.423Z,18.50
2019-04-05T06:59:48.096Z,18.60
2019-04-05T07:02:36.635Z,18.70
2019-04-05T07:05:25.332Z,18.70
2019-04-05T07:08:13.998Z,18.80
2019-04-05T07:11:02.678Z,18.90
2019-04-05T07:13:51.643Z,19.00
2019-04-05T07:16:22.382Z,19.00
2019-04-05T07:19:10.895Z,18.90
2019-04-05T07:21:59.829Z,18.80
2019-04-05T07:24:49.523Z,18.60
2019-04-05T07:27:38.963Z,18.10
2019-04-05T07:30:28.978Z,18.30
2019-04-05T07:33:17.849Z,18.50
2019-04-05T07:36:06.329Z,18.70
2019-04-05T07:38:54.947Z,18.80
2019-04-05T07:41:43.730Z,18.90
2019-04-05T07:44:32.466Z,19.00
2019-04-05T07:47:21.082Z,19.00
2019-04-05T07:50:10.400Z,19.10
2019-04-05T07:52:58.752Z,19.10
2019-04-05T07:55:47.774Z,19.10
2019-04-05T07:58:36.138Z,19.10
2019-04-05T08:01:24.692Z,19.30
2019-04-05T08:04:13.123Z,19.50
2019-04-05T08:07:04.029Z,19.70
2019-04-05T08:09:53.331Z,19.80
2019-04-05T08:12:42.802Z,20.00
2019-04-05T08:15:32.445Z,20.10
2019-04-05T08:18:20.533Z,20.20
2019-04-05T08:21:08.979Z,20.20
2019-04-05T08:23:57.782Z,20.30
2019-04-05T08:26:46.196Z,20.40
2019-04-05T08:29:34.753Z,20.40
2019-04-05T08:32:23.307Z,20.40
2019-04-05T08:35:12.472Z,20.50
2019-04-05T08:37:43.244Z,20.60
2019-04-05T08:40:14.348Z,20.60
2019-04-05T08:42:45.282Z,20.50
2019-04-05T08:45:16.073Z,20.60
2019-04-05T08:48:04.852Z,20.70
2019-04-05T08:50:53.171Z,20.80
2019-04-05T08:53:41.608Z,20.90
2019-04-05T08:56:30.179Z,21.00
2019-04-05T08:59:18.685Z,21.10
2019-04-05T09:02:07.466Z,21.20
2019-04-05T09:04:55.739Z,21.20
2019-04-05T09:07:44.053Z,21.30
2019-04-05T09:10:32.247Z,21.30
2019-04-05T09:13:20.763Z,21.30
2019-04-05T09:16:11.632Z,21.30
2019-04-05T09:18:59.121Z,21.20
2019-04-05T09:21:47.372Z,21.20
2019-04-05T09:24:36.330Z,21.20
2019-04-05T09:27:07.334Z,21.10
2019-04-05T09:29:55.662Z,21.10
2019-04-05T09:32:44.185Z,21.20
2019-04-05T09:35:32.759Z,21.20
2019-04-05T09:38:21.262Z,21.20
2019-04-05T09:41:09.815Z,21.20
2019-04-05T09:43:58.063Z,21.30
2019-04-05T09:46:50.872Z,21.40
2019-04-05T09:49:37.365Z,21.40
2019-04-05T09:52:26.447Z,21.30
2019-04-05T09:55:15.411Z,21.30
2019-04-05T09:58:05.365Z,21.30
2019-04-05T10:00:54.007Z,21.30
2019-04-05T10:03:43.759Z,21.40
2019-04-05T10:06:32.295Z,21.30
2019-04-05T10:09:20.907Z,20.60
2019-04-05T10:12:09.343Z,20.20
2019-04-05T10:14:57.668Z,19.80
2019-04-05T10:17:46.159Z,19.60
2019-04-05T10:20:34.645Z,19.50
2019-04-05T10:23:22.952Z,19.40
2019-04-05T10:26:11.847Z,19.70
2019-04-05T10:29:00.431Z,20.20
2019-04-05T10:31:49.260Z,20.60
2019-04-05T10:34:37.571Z,20.80
2019-04-05T10:37:26.329Z,21.00
2019-04-05T10:40:16.031Z,21.10
2019-04-05T10:43:05.540Z,21.20
2019-04-05T10:45:54.097Z,21.30
2019-04-05T10:48:42.620Z,21.40
2019-04-05T10:51:31.095Z,21.40
2019-04-05T10:54:19.991Z,21.50
2019-04-05T10:57:08.338Z,21.50
2019-04-05T10:59:56.927Z,21.60
2019-04-05T11:02:45.361Z,21.60
2019-04-05T11:05:33.836Z,21.70
2019-04-05T11:08:22.037Z,21.80
2019-04-05T11:11:10.308Z,21.80
2019-04-05T11:13:59.520Z,21.80
2019-04-05T11:16:57.761Z,21.80
2019-04-05T11:19:37.803Z,21.90
2019-04-05T11:22:25.981Z,21.90
2019-04-05T11:25:16.122Z,22.00
2019-04-05T11:28:04.848Z,22.00
2019-04-05T11:30:53.506Z,22.10
2019-04-05T11:33:42.363Z,22.10
2019-04-05T11:36:31.202Z,22.10
2019-04-05T11:39:20.756Z,22.10
2019-04-05T11:42:09.807Z,22.00
2019-04-05T11:45:00.745Z,21.90
2019-04-05T11:47:53.518Z,21.90
2019-04-05T11:50:41.399Z,21.80
2019-04-05T11:53:30.081Z,21.80
2019-04-05T11:56:19.952Z,21.80
2019-04-05T11:59:10.383Z,21.70
2019-04-05T12:02:03.215Z,21.70
2019-04-05T12:04:52.597Z,21.60
2019-04-05T12:07:41.121Z,21.60
2019-04-05T12:10:32.041Z,21.50
2019-04-05T12:13:20.070Z,21.50
2019-04-05T12:16:10.461Z,21.50
2019-04-05T12:18:59.031Z,21.50
2019-04-05T12:21:47.571Z,21.40
2019-04-05T12:24:36.734Z,21.40
2019-04-05T12:27:25.214Z,21.40
2019-04-05T12:30:15.562Z,21.40
2019-04-05T12:33:13.682Z,21.40
2019-04-05T12:35:56.679Z,21.40
2019-04-05T12:38:45.045Z,21.40
2019-04-05T12:41:34.182Z,21.40
2019-04-05T12:44:22.320Z,21.50
2019-04-05T12:47:11.365Z,21.40
2019-04-05T12:50:00.308Z,21.40
2019-04-05T12:52:48.898Z,21.40
2019-04-05T12:55:37.454Z,21.10
2019-04-05T12:58:26.627Z,21.10
2019-04-05T13:01:15.300Z,21.10
2019-04-05T13:04:03.647Z,21.20
2019-04-05T13:06:53.007Z,21.20
2019-04-05T13:09:45.413Z,21.20
2019-04-05T13:12:32.241Z,21.20
2019-04-05T13:15:21.523Z,21.10
2019-04-05T13:18:09.880Z,21.10
2019-04-05T13:20:59.872Z,21.10
2019-04-05T13:23:48.153Z,21.10
2019-04-05T13:26:37.139Z,21.10
2019-04-05T13:29:26.182Z,21.10
2019-04-05T13:32:17.036Z,21.10
2019-04-05T13:35:04.792Z,21.10
2019-04-05T13:37:53.132Z,21.10
2019-04-05T13:40:41.746Z,21.10
2019-04-05T13:43:31.986Z,21.10
2019-04-05T13:46:22.724Z,21.10
2019-04-05T13:49:10.486Z,21.10
2019-04-05T13:51:59.636Z,21.10
2019-04-05T13:54:48.325Z,21.10
2019-04-05T13:57:38.464Z,21.10
2019-04-05T14:00:27.480Z,21.10
2019-04-05T14:03:16.322Z,21.10
2019-04-05T14:06:05.022Z,21.20
2019-04-05T14:08:53.374Z,21.20
2019-04-05T14:11:41.936Z,21.20
2019-04-05T14:14:30.993Z,21.20
2019-04-05T14:17:19.015Z,21.10
2019-04-05T14:20:09.319Z,21.10
2019-04-05T14:22:58.388Z,21.10
2019-04-05T14:25:46.965Z,21.10
2019-04-05T14:28:35.500Z,21.10
2019-04-05T14:31:23.913Z,21.20
2019-04-05T14:34:12.235Z,21.10
2019-04-05T14:37:00.761Z,21.20
2019-04-05T14:39:49.001Z,21.20
2019-04-05T14:42:37.776Z,21.20
2019-04-05T14:45:26.568Z,21.20
2019-04-05T14:48:14.762Z,21.20
2019-04-05T14:51:04.304Z,21.20
2019-04-05T14:53:52.561Z,21.20
2019-04-05T14:56:41.677Z,21.20
2019-04-05T14:59:32.652Z,21.10
2019-04-05T15:02:20.243Z,21.10
2019-04-05T15:05:10.310Z,21.10
2019-04-05T15:07:58.766Z,21.10
2019-04-05T15:10:47.050Z,21.10
2019-04-05T15:13:35.130Z,21.10
2019-04-05T15:16:23.969Z,21.10
2019-04-05T15:19:12.302Z,21.10
2019-04-05T15:22:06.023Z,21.00
2019-04-05T15:24:50.885Z,21.00
2019-04-05T15:27:39.212Z,21.10
2019-04-05T15:30:27.738Z,21.00
2019-04-05T15:33:16.374Z,21.10
2019-04-05T15:36:05.049Z,21.30
2019-04-05T15:38:53.405Z,21.40
2019-04-05T15:41:42.084Z,21.50
2019-04-05T15:44:30.699Z,21.50
2019-04-05T15:47:23.211Z,21.50
2019-04-05T15:50:10.398Z,21.50
2019-04-05T15:53:01.915Z,21.40
2019-04-05T15:55:48.990Z,21.40
2019-04-05T15:58:37.397Z,21.30
2019-04-05T16:01:25.584Z,21.30
2019-04-05T16:04:14.276Z,21.30
2019-04-05T16:07:02.694Z,21.30
2019-04-05T16:09:51.220Z,21.20
2019-04-05T16:12:39.609Z,21.20
2019-04-05T16:15:28.693Z,21.20
2019-04-05T16:18:17.182Z,21.20
2019-04-05T16:21:05.948Z,21.10
2019-04-05T16:23:54.193Z,21.10
2019-04-05T16:26:43.013Z,21.10
2019-04-05T16:29:31.738Z,21.10
2019-04-05T16:32:51.993Z,21.10
2019-04-05T16:35:40.464Z,21.10
2019-04-05T16:38:28.896Z,21.00
2019-04-05T16:41:17.243Z,21.00
2019-04-05T16:44:06.126Z,21.00
2019-04-05T16:46:54.361Z,21.00
2019-04-05T16:49:42.618Z,21.00
2019-04-05T16:52:43.778Z,21.00
2019-04-05T16:55:05.520Z,21.00
2019-04-05T16:57:36.202Z,21.00
2019-04-05T17:00:13.167Z,21.00
2019-04-05T17:02:43.877Z,21.00
2019-04-05T17:05:15.376Z,21.00
2019-04-05T17:07:46.113Z,21.00
2019-04-05T17:10:16.870Z,21.00
2019-04-05T17:12:47.813Z,20.90
2019-04-05T17:15:20.218Z,21.00
2019-04-05T17:18:08.440Z,20.90
2019-04-05T17:20:56.749Z,20.90
2019-04-05T17:23:45.077Z,20.90
2019-04-05T17:26:33.710Z,20.90
2019-04-05T17:29:23.324Z,20.90
2019-04-05T17:32:12.047Z,21.00
2019-04-05T17:35:00.470Z,20.90
2019-04-05T17:37:49.565Z,20.90
2019-04-05T17:40:38.131Z,20.90
2019-04-05T17:43:26.948Z,20.90
2019-04-05T17:46:15.539Z,20.90
2019-04-05T17:49:04.563Z,20.90
2019-04-05T17:51:54.213Z,20.90
2019-04-05T17:54:42.759Z,20.90
2019-04-05T17:57:32.212Z,20.90
2019-04-05T18:00:22.207Z,20.80
2019-04-05T18:03:10.921Z,20.80
2019-04-05T18:06:00.514Z,20.80
2019-04-05T18:08:49.112Z,20.80
2019-04-05T18:11:37.769Z,20.80
2019-04-05T18:14:26.476Z,20.80
2019-04-05T18:17:15.303Z,20.80
2019-04-05T18:20:04.878Z,20.70
2019-04-05T18:22:53.118Z,20.70
2019-04-05T18:25:42.025Z,20.70
2019-04-05T18:28:30.246Z,20.80
2019-04-05T18:31:18.548Z,20.80
2019-04-05T18:34:07.596Z,20.80
2019-04-05T18:36:56.213Z,20.70
2019-04-05T18:39:44.753Z,20.70
2019-04-05T18:42:33.228Z,20.70
2019-04-05T18:45:21.790Z,20.70
2019-04-05T18:48:10.234Z,20.70
2019-04-05T18:50:58.798Z,20.70
2019-04-05T18:53:47.340Z,20.70
2019-04-05T18:56:36.405Z,20.70
2019-04-05T18:59:25.152Z,20.70
2019-04-05T19:02:13.689Z,20.70
2019-04-05T19:05:02.375Z,20.70
2019-04-05T19:07:52.378Z,20.70
2019-04-05T19:10:41.143Z,20.60
2019-04-05T19:13:29.917Z,20.60
2019-04-05T19:16:19.270Z,20.60
2019-04-05T19:19:08.222Z,20.60
2019-04-05T19:21:56.933Z,20.60
2019-04-05T19:24:46.395Z,20.60
2019-04-05T19:27:35.058Z,20.60
2019-04-05T19:50:18.476Z,20.50
2019-04-05T19:53:07.283Z,20.50
2019-04-05T19:55:57.412Z,20.50
2019-04-05T19:58:46.046Z,20.50
2019-04-05T20:01:34.363Z,20.50
2019-04-05T20:04:23.025Z,20.50
2019-04-05T20:07:11.585Z,20.50
2019-04-05T20:10:00.423Z,20.50
2019-04-05T20:12:49.226Z,20.50
2019-04-05T20:15:37.770Z,20.50
2019-04-05T20:18:26.728Z,20.50
2019-04-05T20:21:15.485Z,20.50
2019-04-05T20:24:13.762Z,20.50
2019-04-05T20:26:54.424Z,20.40
2019-04-05T20:29:43.529Z,20.40
2019-04-05T20:32:31.869Z,20.30
2019-04-05T20:35:20.981Z,20.30
2019-04-05T20:38:09.676Z,20.30
2019-04-05T20:40:58.620Z,20.30
2019-04-05T20:43:48.368Z,20.30
2019-04-05T20:46:37.248Z,20.30
2019-04-05T20:49:25.711Z,20.20
2019-04-05T20:52:14.399Z,20.20
2019-04-05T20:55:03.554Z,20.10
2019-04-05T20:57:52.145Z,20.10
2019-04-05T21:00:40.618Z,20.10
2019-04-05T21:03:29.125Z,20.10
2019-04-05T21:06:18.086Z,20.00
2019-04-05T21:09:08.117Z,20.00
2019-04-05T21:11:56.123Z,20.00
2019-04-05T21:14:45.214Z,19.90
2019-04-05T21:17:33.773Z,19.90
2019-04-05T21:20:22.344Z,19.90
2019-04-05T21:23:11.008Z,19.80
2019-04-05T21:25:59.411Z,19.80
2019-04-05T21:28:47.895Z,19.70
2019-04-05T21:31:36.868Z,19.70
2019-04-05T21:34:25.198Z,19.70
2019-04-05T21:37:13.783Z,19.70
2019-04-05T21:40:01.908Z,19.60
2019-04-05T21:42:50.186Z,19.60
2019-04-05T21:45:39.106Z,19.60
2019-04-05T21:48:27.739Z,19.50
2019-04-05T21:51:16.082Z,19.50
2019-04-05T21:54:04.422Z,19.50
2019-04-05T21:56:53.903Z,19.40
2019-04-05T21:59:42.777Z,19.40
2019-04-05T22:02:32.112Z,19.30
2019-04-05T22:05:20.540Z,19.30
2019-04-05T22:08:09.874Z,19.30
2019-04-05T22:10:58.461Z,19.30
2019-04-05T22:13:47.449Z,19.20
2019-04-05T22:16:36.205Z,19.20
2019-04-05T22:19:25.035Z,19.20
2019-04-05T22:22:13.559Z,19.20
2019-04-05T22:25:02.147Z,19.10
2019-04-05T22:27:52.088Z,19.10
2019-04-05T22:30:40.424Z,19.10
2019-04-05T22:33:29.514Z,19.10
2019-04-05T22:36:18.630Z,19.10
2019-04-05T22:39:08.326Z,19.00
2019-04-05T22:41:56.778Z,19.00
2019-04-05T22:44:46.143Z,19.00
2019-04-05T22:47:35.455Z,18.90
2019-04-05T22:50:24.344Z,18.90
2019-04-05T22:53:13.377Z,18.90
2019-04-05T22:56:01.672Z,18.80
2019-04-05T22:58:50.887Z,18.80
2019-04-05T23:01:39.253Z,18.80
2019-04-05T23:04:27.611Z,18.80
2019-04-05T23:07:16.057Z,18.70
2019-04-05T23:10:07.542Z,18.70
2019-04-05T23:12:55.810Z,18.70
2019-04-05T23:15:44.137Z,18.60
2019-04-05T23:18:32.585Z,18.60
2019-04-05T23:21:20.666Z,18.60
2019-04-05T23:24:08.982Z,18.50
2019-04-05T23:26:57.641Z,18.50
2019-04-05T23:29:46.725Z,18.50
2019-04-05T23:32:35.132Z,18.40
2019-04-05T23:35:23.794Z,18.40
2019-04-05T23:38:12.349Z,18.40
2019-04-05T23:41:00.469Z,18.40
2019-04-05T23:43:48.875Z,18.30
2019-04-05T23:46:37.275Z,18.30
2019-04-05T23:49:25.457Z,18.30
2019-04-05T23:52:14.529Z,18.20
2019-04-05T23:55:04.035Z,18.20
2019-04-05T23:57:52.069Z,18.20
